sensor_id;sensor_type;location;lat;lon;timestamp;temperature;humidity
27697;DHT22;15105;56.514;21.002;2022-08-14T00:02:12;18.40;99.90
27697;DHT22;15105;56.514;21.002;2022-08-14T00:04:40;18.40;99.90
27697;DHT22;15105;56.514;21.002;2022-08-14T00:07:11;18.40;99.90
27697;DHT22;15105;56.514;21.002;2022-08-14T00:09:41;18.40;99.90
27697;DHT22;15105;56.514;21.002;2022-08-14T00:12:28;18.40;99.90
27697;DHT22;15105;56.514;21.002;2022-08-14T00:17:44;18.40;99.90
27697;DHT22;15105;56.514;21.002;2022-08-14T00:20:22;18.30;99.90
27697;DHT22;15105;56.514;21.002;2022-08-14T00:23:04;18.30;99.90
27697;DHT22;15105;56.514;21.002;2022-08-14T00:25:45;18.20;99.90
27697;DHT22;15105;56.514;21.002;2022-08-14T00:28:31;18.20;99.90
27697;DHT22;15105;56.514;21.002;2022-08-14T00:31:01;18.20;99.90
27697;DHT22;15105;56.514;21.002;2022-08-14T00:33:30;18.10;99.90
27697;DHT22;15105;56.514;21.002;2022-08-14T00:36:17;18.10;99.90
27697;DHT22;15105;56.514;21.002;2022-08-14T00:39:04;18.00;99.90
27697;DHT22;15105;56.514;21.002;2022-08-14T00:41:33;17.90;99.90
27697;DHT22;15105;56.514;21.002;2022-08-14T00:44:00;17.90;99.90
27697;DHT22;15105;56.514;21.002;2022-08-14T00:46:27;17.90;99.90
27697;DHT22;15105;56.514;21.002;2022-08-14T00:48:59;17.80;99.90
27697;DHT22;15105;56.514;21.002;2022-08-14T00:51:28;17.80;99.90
27697;DHT22;15105;56.514;21.002;2022-08-14T00:54:05;17.80;99.90
27697;DHT22;15105;56.514;21.002;2022-08-14T00:56:50;17.70;99.90
27697;DHT22;15105;56.514;21.002;2022-08-14T00:59:25;17.80;99.90
27697;DHT22;15105;56.514;21.002;2022-08-14T01:01:56;17.70;99.90
27697;DHT22;15105;56.514;21.002;2022-08-14T01:04:27;17.80;99.90
27697;DHT22;15105;56.514;21.002;2022-08-14T01:07:15;17.80;99.90
27697;DHT22;15105;56.514;21.002;2022-08-14T01:09:52;17.70;99.90
27697;DHT22;15105;56.514;21.002;2022-08-14T01:12:21;17.70;99.90
27697;DHT22;15105;56.514;21.002;2022-08-14T01:14:57;17.70;99.90
27697;DHT22;15105;56.514;21.002;2022-08-14T01:17:26;17.70;99.90
27697;DHT22;15105;56.514;21.002;2022-08-14T01:20:16;17.60;99.90
27697;DHT22;15105;56.514;21.002;2022-08-14T01:23:11;17.60;99.90
27697;DHT22;15105;56.514;21.002;2022-08-14T01:25:46;17.60;99.90
27697;DHT22;15105;56.514;21.002;2022-08-14T01:28:13;17.60;99.90
27697;DHT22;15105;56.514;21.002;2022-08-14T01:31:00;17.60;99.90
27697;DHT22;15105;56.514;21.002;2022-08-14T01:33:32;17.60;99.90
27697;DHT22;15105;56.514;21.002;2022-08-14T01:36:19;17.60;99.90
27697;DHT22;15105;56.514;21.002;2022-08-14T01:38:50;17.60;99.90
27697;DHT22;15105;56.514;21.002;2022-08-14T01:41:21;17.50;99.90
27697;DHT22;15105;56.514;21.002;2022-08-14T01:43:59;17.50;99.90
27697;DHT22;15105;56.514;21.002;2022-08-14T01:46:31;17.50;99.90
27697;DHT22;15105;56.514;21.002;2022-08-14T01:49:13;17.50;99.90
27697;DHT22;15105;56.514;21.002;2022-08-14T01:51:43;17.50;99.90
27697;DHT22;15105;56.514;21.002;2022-08-14T01:54:17;17.50;99.90
27697;DHT22;15105;56.514;21.002;2022-08-14T01:56:53;17.50;99.90
27697;DHT22;15105;56.514;21.002;2022-08-14T01:59:26;17.50;99.90
27697;DHT22;15105;56.514;21.002;2022-08-14T02:02:05;17.40;99.90
27697;DHT22;15105;56.514;21.002;2022-08-14T02:04:46;17.40;99.90
27697;DHT22;15105;56.514;21.002;2022-08-14T02:07:23;17.40;99.90
27697;DHT22;15105;56.514;21.002;2022-08-14T02:10:12;17.30;99.90
27697;DHT22;15105;56.514;21.002;2022-08-14T02:12:44;17.30;99.90
27697;DHT22;15105;56.514;21.002;2022-08-14T02:15:24;17.20;99.90
27697;DHT22;15105;56.514;21.002;2022-08-14T02:17:52;17.20;99.90
27697;DHT22;15105;56.514;21.002;2022-08-14T02:20:19;17.20;99.90
27697;DHT22;15105;56.514;21.002;2022-08-14T02:22:50;17.20;99.90
27697;DHT22;15105;56.514;21.002;2022-08-14T02:25:21;17.20;99.90
27697;DHT22;15105;56.514;21.002;2022-08-14T02:27:48;17.10;99.90
27697;DHT22;15105;56.514;21.002;2022-08-14T02:30:35;17.10;99.90
27697;DHT22;15105;56.514;21.002;2022-08-14T02:33:04;17.10;99.90
27697;DHT22;15105;56.514;21.002;2022-08-14T02:35:32;17.10;99.90
27697;DHT22;15105;56.514;21.002;2022-08-14T02:38:06;17.10;99.90
27697;DHT22;15105;56.514;21.002;2022-08-14T02:40:37;17.10;99.90
27697;DHT22;15105;56.514;21.002;2022-08-14T02:43:08;17.10;99.90
27697;DHT22;15105;56.514;21.002;2022-08-14T02:45:36;17.10;99.90
27697;DHT22;15105;56.514;21.002;2022-08-14T02:48:11;17.10;99.90
27697;DHT22;15105;56.514;21.002;2022-08-14T02:51:01;17.10;99.90
27697;DHT22;15105;56.514;21.002;2022-08-14T02:53:29;17.10;99.90
27697;DHT22;15105;56.514;21.002;2022-08-14T02:55:58;17.10;99.90
27697;DHT22;15105;56.514;21.002;2022-08-14T02:58:47;17.10;99.90
27697;DHT22;15105;56.514;21.002;2022-08-14T03:01:17;17.10;99.90
27697;DHT22;15105;56.514;21.002;2022-08-14T03:03:46;17.10;99.90
27697;DHT22;15105;56.514;21.002;2022-08-14T03:06:14;17.10;99.90
27697;DHT22;15105;56.514;21.002;2022-08-14T03:09:02;17.10;99.90
27697;DHT22;15105;56.514;21.002;2022-08-14T03:11:29;17.10;99.90
27697;DHT22;15105;56.514;21.002;2022-08-14T03:14:00;17.10;99.90
27697;DHT22;15105;56.514;21.002;2022-08-14T03:16:28;17.10;99.90
27697;DHT22;15105;56.514;21.002;2022-08-14T03:19:05;17.10;99.90
27697;DHT22;15105;56.514;21.002;2022-08-14T03:21:34;17.10;99.90
27697;DHT22;15105;56.514;21.002;2022-08-14T03:24:03;17.20;99.90
27697;DHT22;15105;56.514;21.002;2022-08-14T03:26:48;17.20;99.90
27697;DHT22;15105;56.514;21.002;2022-08-14T03:29:24;17.20;99.90
27697;DHT22;15105;56.514;21.002;2022-08-14T03:31:52;17.20;99.90
27697;DHT22;15105;56.514;21.002;2022-08-14T03:34:20;17.30;99.90
27697;DHT22;15105;56.514;21.002;2022-08-14T03:37:11;17.30;99.90
27697;DHT22;15105;56.514;21.002;2022-08-14T03:39:58;17.30;99.90
27697;DHT22;15105;56.514;21.002;2022-08-14T03:42:26;17.40;99.90
27697;DHT22;15105;56.514;21.002;2022-08-14T03:45:03;17.40;99.90
27697;DHT22;15105;56.514;21.002;2022-08-14T03:47:56;17.50;99.90
27697;DHT22;15105;56.514;21.002;2022-08-14T03:50:28;17.50;99.90
27697;DHT22;15105;56.514;21.002;2022-08-14T03:52:59;17.60;99.90
27697;DHT22;15105;56.514;21.002;2022-08-14T03:55:27;17.70;99.90
27697;DHT22;15105;56.514;21.002;2022-08-14T03:57:56;17.80;99.90
27697;DHT22;15105;56.514;21.002;2022-08-14T04:00:27;18.10;99.90
27697;DHT22;15105;56.514;21.002;2022-08-14T04:03:12;18.70;99.90
27697;DHT22;15105;56.514;21.002;2022-08-14T04:05:49;19.30;99.90
27697;DHT22;15105;56.514;21.002;2022-08-14T04:08:17;20.10;99.90
27697;DHT22;15105;56.514;21.002;2022-08-14T04:10:58;20.80;99.90
27697;DHT22;15105;56.514;21.002;2022-08-14T04:13:28;21.40;99.90
27697;DHT22;15105;56.514;21.002;2022-08-14T04:16:03;21.90;99.90
27697;DHT22;15105;56.514;21.002;2022-08-14T04:18:40;22.20;99.90
27697;DHT22;15105;56.514;21.002;2022-08-14T04:23:45;21.10;99.90
27697;DHT22;15105;56.514;21.002;2022-08-14T04:26:27;21.00;99.90
27697;DHT22;15105;56.514;21.002;2022-08-14T04:29:12;20.60;99.90
27697;DHT22;15105;56.514;21.002;2022-08-14T04:31:42;20.20;99.90
27697;DHT22;15105;56.514;21.002;2022-08-14T04:34:29;19.80;99.90
27697;DHT22;15105;56.514;21.002;2022-08-14T04:36:57;19.50;99.90
27697;DHT22;15105;56.514;21.002;2022-08-14T04:39:51;19.40;99.90
27697;DHT22;15105;56.514;21.002;2022-08-14T04:42:38;19.40;99.90
27697;DHT22;15105;56.514;21.002;2022-08-14T04:45:26;19.30;99.90
27697;DHT22;15105;56.514;21.002;2022-08-14T04:48:06;19.30;99.90
27697;DHT22;15105;56.514;21.002;2022-08-14T04:51:00;19.40;99.90
27697;DHT22;15105;56.514;21.002;2022-08-14T04:53:29;20.60;99.90
27697;DHT22;15105;56.514;21.002;2022-08-14T04:56:03;22.30;99.90
27697;DHT22;15105;56.514;21.002;2022-08-14T04:58:37;23.60;99.90
27697;DHT22;15105;56.514;21.002;2022-08-14T05:01:06;24.70;99.90
27697;DHT22;15105;56.514;21.002;2022-08-14T05:03:45;25.10;99.90
27697;DHT22;15105;56.514;21.002;2022-08-14T05:20:09;21.30;99.90
27697;DHT22;15105;56.514;21.002;2022-08-14T05:23:03;21.10;99.90
27697;DHT22;15105;56.514;21.002;2022-08-14T05:25:30;20.90;99.90
27697;DHT22;15105;56.514;21.002;2022-08-14T05:28:14;20.80;99.90
27697;DHT22;15105;56.514;21.002;2022-08-14T05:30:47;20.70;99.90
27697;DHT22;15105;56.514;21.002;2022-08-14T05:33:16;20.70;99.90
27697;DHT22;15105;56.514;21.002;2022-08-14T05:35:45;20.70;99.90
27697;DHT22;15105;56.514;21.002;2022-08-14T05:38:15;20.70;99.90
27697;DHT22;15105;56.514;21.002;2022-08-14T05:40:56;20.60;99.90
27697;DHT22;15105;56.514;21.002;2022-08-14T05:43:24;20.60;99.90
27697;DHT22;15105;56.514;21.002;2022-08-14T05:46:26;20.60;99.90
27697;DHT22;15105;56.514;21.002;2022-08-14T05:48:55;20.70;99.90
27697;DHT22;15105;56.514;21.002;2022-08-14T05:51:24;20.70;99.90
27697;DHT22;15105;56.514;21.002;2022-08-14T05:53:52;20.70;99.90
27697;DHT22;15105;56.514;21.002;2022-08-14T05:56:38;20.70;99.90
27697;DHT22;15105;56.514;21.002;2022-08-14T05:59:05;20.80;99.90
27697;DHT22;15105;56.514;21.002;2022-08-14T06:01:36;20.80;99.90
27697;DHT22;15105;56.514;21.002;2022-08-14T06:04:03;20.90;99.90
27697;DHT22;15105;56.514;21.002;2022-08-14T06:06:31;20.90;99.90
27697;DHT22;15105;56.514;21.002;2022-08-14T06:09:04;21.00;99.90
27697;DHT22;15105;56.514;21.002;2022-08-14T06:11:51;21.10;99.90
27697;DHT22;15105;56.514;21.002;2022-08-14T06:14:19;21.10;99.90
27697;DHT22;15105;56.514;21.002;2022-08-14T06:16:50;21.20;99.90
27697;DHT22;15105;56.514;21.002;2022-08-14T06:19:19;21.20;99.90
27697;DHT22;15105;56.514;21.002;2022-08-14T06:21:49;21.30;99.90
27697;DHT22;15105;56.514;21.002;2022-08-14T06:24:25;21.30;99.90
27697;DHT22;15105;56.514;21.002;2022-08-14T06:26:52;21.40;99.90
27697;DHT22;15105;56.514;21.002;2022-08-14T06:29:30;21.40;99.90
27697;DHT22;15105;56.514;21.002;2022-08-14T06:31:59;21.40;99.90
27697;DHT22;15105;56.514;21.002;2022-08-14T06:34:46;21.50;99.90
27697;DHT22;15105;56.514;21.002;2022-08-14T06:40:18;21.60;99.90
27697;DHT22;15105;56.514;21.002;2022-08-14T06:43:00;21.70;99.90
27697;DHT22;15105;56.514;21.002;2022-08-14T06:45:33;21.70;99.90
27697;DHT22;15105;56.514;21.002;2022-08-14T06:48:02;21.70;99.90
27697;DHT22;15105;56.514;21.002;2022-08-14T06:50:38;21.80;99.90
27697;DHT22;15105;56.514;21.002;2022-08-14T07:35:00;23.40;99.90
27697;DHT22;15105;56.514;21.002;2022-08-14T07:37:28;23.50;99.90
27697;DHT22;15105;56.514;21.002;2022-08-14T07:39:55;23.70;99.90
27697;DHT22;15105;56.514;21.002;2022-08-14T07:42:22;23.80;99.90
27697;DHT22;15105;56.514;21.002;2022-08-14T07:44:49;24.00;99.90
27697;DHT22;15105;56.514;21.002;2022-08-14T07:47:16;24.20;99.90
27697;DHT22;15105;56.514;21.002;2022-08-14T07:50:04;24.40;99.90
27697;DHT22;15105;56.514;21.002;2022-08-14T07:52:36;24.70;99.90
27697;DHT22;15105;56.514;21.002;2022-08-14T07:55:04;25.00;99.90
27697;DHT22;15105;56.514;21.002;2022-08-14T07:57:33;25.20;99.90
27697;DHT22;15105;56.514;21.002;2022-08-14T08:00:05;25.40;99.90
27697;DHT22;15105;56.514;21.002;2022-08-14T08:02:55;25.50;99.90
27697;DHT22;15105;56.514;21.002;2022-08-14T08:05:26;25.80;99.90
27697;DHT22;15105;56.514;21.002;2022-08-14T08:07:54;25.90;99.90
27697;DHT22;15105;56.514;21.002;2022-08-14T08:10:23;26.10;99.90
27697;DHT22;15105;56.514;21.002;2022-08-14T08:13:20;26.30;99.90
27697;DHT22;15105;56.514;21.002;2022-08-14T08:15:52;26.60;99.90
27697;DHT22;15105;56.514;21.002;2022-08-14T08:18:26;26.80;99.90
27697;DHT22;15105;56.514;21.002;2022-08-14T08:20:57;26.80;99.90
27697;DHT22;15105;56.514;21.002;2022-08-14T08:23:27;27.00;99.90
27697;DHT22;15105;56.514;21.002;2022-08-14T08:26:09;27.10;99.90
27697;DHT22;15105;56.514;21.002;2022-08-14T08:28:36;27.20;99.90
27697;DHT22;15105;56.514;21.002;2022-08-14T08:31:09;27.30;99.90
27697;DHT22;15105;56.514;21.002;2022-08-14T08:33:40;27.30;99.90
27697;DHT22;15105;56.514;21.002;2022-08-14T08:36:11;27.30;99.90
27697;DHT22;15105;56.514;21.002;2022-08-14T08:38:46;27.30;99.90
27697;DHT22;15105;56.514;21.002;2022-08-14T08:41:45;27.40;99.90
27697;DHT22;15105;56.514;21.002;2022-08-14T08:44:18;27.50;99.90
27697;DHT22;15105;56.514;21.002;2022-08-14T08:47:02;27.80;99.90
27697;DHT22;15105;56.514;21.002;2022-08-14T08:49:38;27.80;99.90
27697;DHT22;15105;56.514;21.002;2022-08-14T08:52:15;27.70;99.90
27697;DHT22;15105;56.514;21.002;2022-08-14T08:54:57;27.80;99.90
27697;DHT22;15105;56.514;21.002;2022-08-14T08:57:24;27.80;99.90
27697;DHT22;15105;56.514;21.002;2022-08-14T08:59:52;27.90;99.90
27697;DHT22;15105;56.514;21.002;2022-08-14T09:02:24;28.10;99.90
27697;DHT22;15105;56.514;21.002;2022-08-14T09:05:01;28.30;99.90
27697;DHT22;15105;56.514;21.002;2022-08-14T09:07:28;28.50;99.90
27697;DHT22;15105;56.514;21.002;2022-08-14T09:09:57;28.70;99.90
27697;DHT22;15105;56.514;21.002;2022-08-14T09:12:29;28.90;99.90
27697;DHT22;15105;56.514;21.002;2022-08-14T09:15:04;28.70;99.90
27697;DHT22;15105;56.514;21.002;2022-08-14T09:17:38;28.80;99.90
27697;DHT22;15105;56.514;21.002;2022-08-14T09:20:07;28.90;99.90
27697;DHT22;15105;56.514;21.002;2022-08-14T09:22:39;29.10;99.90
27697;DHT22;15105;56.514;21.002;2022-08-14T09:25:17;28.90;99.90
27697;DHT22;15105;56.514;21.002;2022-08-14T09:27:45;28.90;99.90
27697;DHT22;15105;56.514;21.002;2022-08-14T09:30:13;28.90;99.90
27697;DHT22;15105;56.514;21.002;2022-08-14T09:41:22;28.90;99.90
27697;DHT22;15105;56.514;21.002;2022-08-14T09:44:41;28.90;99.90
27697;DHT22;15105;56.514;21.002;2022-08-14T09:47:15;29.00;99.90
27697;DHT22;15105;56.514;21.002;2022-08-14T09:49:43;29.00;99.90
27697;DHT22;15105;56.514;21.002;2022-08-14T09:52:19;29.20;99.90
27697;DHT22;15105;56.514;21.002;2022-08-14T09:54:59;29.40;99.90
27697;DHT22;15105;56.514;21.002;2022-08-14T09:57:28;29.50;99.90
27697;DHT22;15105;56.514;21.002;2022-08-14T09:59:57;29.50;99.90
27697;DHT22;15105;56.514;21.002;2022-08-14T10:02:29;29.60;99.90
27697;DHT22;15105;56.514;21.002;2022-08-14T10:05:27;29.50;99.90
27697;DHT22;15105;56.514;21.002;2022-08-14T10:07:56;29.60;99.90
27697;DHT22;15105;56.514;21.002;2022-08-14T10:10:39;29.50;99.90
27697;DHT22;15105;56.514;21.002;2022-08-14T10:13:22;29.50;99.90
27697;DHT22;15105;56.514;21.002;2022-08-14T10:15:49;29.50;99.90
27697;DHT22;15105;56.514;21.002;2022-08-14T10:18:18;29.50;99.90
27697;DHT22;15105;56.514;21.002;2022-08-14T10:20:55;29.50;99.90
27697;DHT22;15105;56.514;21.002;2022-08-14T10:23:26;29.50;99.90
27697;DHT22;15105;56.514;21.002;2022-08-14T10:26:05;29.20;99.90
27697;DHT22;15105;56.514;21.002;2022-08-14T10:28:41;29.00;99.90
27697;DHT22;15105;56.514;21.002;2022-08-14T10:31:29;28.90;99.90
27697;DHT22;15105;56.514;21.002;2022-08-14T10:34:21;28.90;99.90
27697;DHT22;15105;56.514;21.002;2022-08-14T10:37:06;29.10;99.90
27697;DHT22;15105;56.514;21.002;2022-08-14T10:40:00;29.40;99.90
27697;DHT22;15105;56.514;21.002;2022-08-14T10:42:48;29.40;99.90
27697;DHT22;15105;56.514;21.002;2022-08-14T10:45:17;29.40;99.90
27697;DHT22;15105;56.514;21.002;2022-08-14T10:47:49;29.50;99.90
27697;DHT22;15105;56.514;21.002;2022-08-14T10:50:40;29.50;99.90
27697;DHT22;15105;56.514;21.002;2022-08-14T10:53:12;29.30;99.90
27697;DHT22;15105;56.514;21.002;2022-08-14T10:55:41;29.40;99.90
27697;DHT22;15105;56.514;21.002;2022-08-14T10:58:11;29.40;99.90
27697;DHT22;15105;56.514;21.002;2022-08-14T11:00:41;29.60;99.90
27697;DHT22;15105;56.514;21.002;2022-08-14T11:06:14;29.70;99.90
27697;DHT22;15105;56.514;21.002;2022-08-14T11:11:43;29.90;97.00
27697;DHT22;15105;56.514;21.002;2022-08-14T11:14:15;29.90;98.10
27697;DHT22;15105;56.514;21.002;2022-08-14T11:16:49;30.00;96.70
27697;DHT22;15105;56.514;21.002;2022-08-14T11:19:20;30.10;96.70
27697;DHT22;15105;56.514;21.002;2022-08-14T11:21:52;29.90;95.70
27697;DHT22;15105;56.514;21.002;2022-08-14T11:24:23;29.70;95.90
27697;DHT22;15105;56.514;21.002;2022-08-14T11:27:15;29.70;96.50
27697;DHT22;15105;56.514;21.002;2022-08-14T11:29:45;29.60;95.50
27697;DHT22;15105;56.514;21.002;2022-08-14T11:32:27;29.70;96.20
27697;DHT22;15105;56.514;21.002;2022-08-14T11:34:56;29.70;95.60
27697;DHT22;15105;56.514;21.002;2022-08-14T11:37:23;29.60;95.20
27697;DHT22;15105;56.514;21.002;2022-08-14T11:40:29;29.60;95.30
27697;DHT22;15105;56.514;21.002;2022-08-14T11:43:02;29.70;94.40
27697;DHT22;15105;56.514;21.002;2022-08-14T11:45:33;29.60;94.00
27697;DHT22;15105;56.514;21.002;2022-08-14T11:48:22;29.60;94.20
27697;DHT22;15105;56.514;21.002;2022-08-14T11:51:15;29.60;95.20
27697;DHT22;15105;56.514;21.002;2022-08-14T11:54:00;29.70;96.20
27697;DHT22;15105;56.514;21.002;2022-08-14T11:56:38;29.60;96.70
27697;DHT22;15105;56.514;21.002;2022-08-14T11:59:16;29.60;93.20
27697;DHT22;15105;56.514;21.002;2022-08-14T12:01:44;29.70;94.30
27697;DHT22;15105;56.514;21.002;2022-08-14T12:04:16;29.80;95.70
27697;DHT22;15105;56.514;21.002;2022-08-14T12:06:59;29.90;94.90
27697;DHT22;15105;56.514;21.002;2022-08-14T12:09:37;29.90;94.70
27697;DHT22;15105;56.514;21.002;2022-08-14T12:12:27;29.80;93.50
27697;DHT22;15105;56.514;21.002;2022-08-14T12:15:03;29.90;92.60
27697;DHT22;15105;56.514;21.002;2022-08-14T12:17:51;29.70;91.40
27697;DHT22;15105;56.514;21.002;2022-08-14T12:20:32;29.60;92.90
27697;DHT22;15105;56.514;21.002;2022-08-14T12:23:04;29.60;93.50
27697;DHT22;15105;56.514;21.002;2022-08-14T12:25:33;29.80;92.60
27697;DHT22;15105;56.514;21.002;2022-08-14T12:28:10;29.80;92.10
27697;DHT22;15105;56.514;21.002;2022-08-14T12:30:57;29.80;92.60
27697;DHT22;15105;56.514;21.002;2022-08-14T12:33:27;29.90;92.70
27697;DHT22;15105;56.514;21.002;2022-08-14T12:36:06;29.90;92.20
27697;DHT22;15105;56.514;21.002;2022-08-14T12:38:50;30.00;92.00
27697;DHT22;15105;56.514;21.002;2022-08-14T12:41:21;30.00;93.00
27697;DHT22;15105;56.514;21.002;2022-08-14T12:43:56;30.00;92.60
27697;DHT22;15105;56.514;21.002;2022-08-14T12:46:36;30.10;94.30
27697;DHT22;15105;56.514;21.002;2022-08-14T12:49:13;30.10;92.80
27697;DHT22;15105;56.514;21.002;2022-08-14T12:51:43;30.10;93.20
27697;DHT22;15105;56.514;21.002;2022-08-14T12:54:17;30.00;93.50
27697;DHT22;15105;56.514;21.002;2022-08-14T12:57:12;30.00;94.50
27697;DHT22;15105;56.514;21.002;2022-08-14T12:59:46;30.00;95.30
27697;DHT22;15105;56.514;21.002;2022-08-14T13:02:24;30.00;94.60
27697;DHT22;15105;56.514;21.002;2022-08-14T13:04:54;30.00;95.10
27697;DHT22;15105;56.514;21.002;2022-08-14T13:07:25;29.80;94.70
27697;DHT22;15105;56.514;21.002;2022-08-14T13:09:58;29.70;94.80
27697;DHT22;15105;56.514;21.002;2022-08-14T13:12:47;29.70;94.60
27697;DHT22;15105;56.514;21.002;2022-08-14T13:15:35;29.60;96.90
27697;DHT22;15105;56.514;21.002;2022-08-14T13:18:02;29.40;97.70
27697;DHT22;15105;56.514;21.002;2022-08-14T13:20:31;29.30;98.90
27697;DHT22;15105;56.514;21.002;2022-08-14T13:22:59;29.20;98.80
27697;DHT22;15105;56.514;21.002;2022-08-14T13:25:28;29.10;97.70
27697;DHT22;15105;56.514;21.002;2022-08-14T13:27:57;29.10;98.90
27697;DHT22;15105;56.514;21.002;2022-08-14T13:30:26;29.00;99.90
27697;DHT22;15105;56.514;21.002;2022-08-14T13:32:54;28.80;99.90
27697;DHT22;15105;56.514;21.002;2022-08-14T13:35:24;28.70;99.90
27697;DHT22;15105;56.514;21.002;2022-08-14T13:37:51;28.70;99.90
27697;DHT22;15105;56.514;21.002;2022-08-14T13:40:21;28.70;99.90
27697;DHT22;15105;56.514;21.002;2022-08-14T13:42:54;28.60;99.90
27697;DHT22;15105;56.514;21.002;2022-08-14T13:45:23;28.60;99.90
27697;DHT22;15105;56.514;21.002;2022-08-14T13:48:13;28.50;99.90
27697;DHT22;15105;56.514;21.002;2022-08-14T13:50:59;28.40;99.90
27697;DHT22;15105;56.514;21.002;2022-08-14T13:53:29;28.10;99.90
27697;DHT22;15105;56.514;21.002;2022-08-14T13:56:00;27.90;99.90
27697;DHT22;15105;56.514;21.002;2022-08-14T13:58:31;27.80;99.90
27697;DHT22;15105;56.514;21.002;2022-08-14T14:01:01;27.80;99.90
27697;DHT22;15105;56.514;21.002;2022-08-14T14:03:33;27.70;99.90
27697;DHT22;15105;56.514;21.002;2022-08-14T14:06:02;27.60;99.90
27697;DHT22;15105;56.514;21.002;2022-08-14T14:08:34;27.50;99.90
27697;DHT22;15105;56.514;21.002;2022-08-14T14:11:14;27.40;99.90
27697;DHT22;15105;56.514;21.002;2022-08-14T14:13:43;27.40;99.90
27697;DHT22;15105;56.514;21.002;2022-08-14T14:16:13;27.40;99.90
27697;DHT22;15105;56.514;21.002;2022-08-14T14:18:55;27.40;99.90
27697;DHT22;15105;56.514;21.002;2022-08-14T14:21:30;27.50;99.90
27697;DHT22;15105;56.514;21.002;2022-08-14T14:23:58;27.50;99.90
27697;DHT22;15105;56.514;21.002;2022-08-14T14:26:28;27.50;99.90
27697;DHT22;15105;56.514;21.002;2022-08-14T14:28:59;27.60;99.90
27697;DHT22;15105;56.514;21.002;2022-08-14T14:31:29;27.60;99.90
27697;DHT22;15105;56.514;21.002;2022-08-14T14:34:02;27.60;99.90
27697;DHT22;15105;56.514;21.002;2022-08-14T14:36:49;27.50;99.90
27697;DHT22;15105;56.514;21.002;2022-08-14T14:39:23;27.40;99.90
27697;DHT22;15105;56.514;21.002;2022-08-14T14:41:56;27.30;99.90
27697;DHT22;15105;56.514;21.002;2022-08-14T14:44:47;27.20;99.90
27697;DHT22;15105;56.514;21.002;2022-08-14T14:47:22;27.20;99.90
27697;DHT22;15105;56.514;21.002;2022-08-14T14:49:51;27.20;99.90
27697;DHT22;15105;56.514;21.002;2022-08-14T14:52:21;27.30;99.90
27697;DHT22;15105;56.514;21.002;2022-08-14T14:54:55;27.40;99.90
27697;DHT22;15105;56.514;21.002;2022-08-14T14:57:27;27.40;99.90
27697;DHT22;15105;56.514;21.002;2022-08-14T15:00:12;27.50;99.90
27697;DHT22;15105;56.514;21.002;2022-08-14T15:02:47;27.40;99.90
27697;DHT22;15105;56.514;21.002;2022-08-14T15:05:17;27.40;99.90
27697;DHT22;15105;56.514;21.002;2022-08-14T15:07:47;27.40;99.90
27697;DHT22;15105;56.514;21.002;2022-08-14T15:10:18;27.30;99.90
27697;DHT22;15105;56.514;21.002;2022-08-14T15:12:58;27.40;99.90
27697;DHT22;15105;56.514;21.002;2022-08-14T15:15:30;27.40;99.90
27697;DHT22;15105;56.514;21.002;2022-08-14T15:17:58;27.40;99.90
27697;DHT22;15105;56.514;21.002;2022-08-14T15:20:27;27.40;99.90
27697;DHT22;15105;56.514;21.002;2022-08-14T15:22:58;27.40;99.90
27697;DHT22;15105;56.514;21.002;2022-08-14T15:25:48;27.50;99.90
27697;DHT22;15105;56.514;21.002;2022-08-14T15:28:18;27.60;99.90
27697;DHT22;15105;56.514;21.002;2022-08-14T15:30:48;27.60;99.90
27697;DHT22;15105;56.514;21.002;2022-08-14T15:33:23;27.70;99.90
27697;DHT22;15105;56.514;21.002;2022-08-14T15:36:29;27.90;99.90
27697;DHT22;15105;56.514;21.002;2022-08-14T15:38:57;28.10;99.90
27697;DHT22;15105;56.514;21.002;2022-08-14T15:41:25;28.20;99.90
27697;DHT22;15105;56.514;21.002;2022-08-14T15:44:07;28.40;99.90
27697;DHT22;15105;56.514;21.002;2022-08-14T15:46:51;28.50;99.90
27697;DHT22;15105;56.514;21.002;2022-08-14T15:49:18;28.60;99.90
27697;DHT22;15105;56.514;21.002;2022-08-14T15:51:47;28.60;99.90
27697;DHT22;15105;56.514;21.002;2022-08-14T15:54:16;28.70;99.90
27697;DHT22;15105;56.514;21.002;2022-08-14T15:57:08;28.70;99.90
27697;DHT22;15105;56.514;21.002;2022-08-14T15:59:37;28.60;99.90
27697;DHT22;15105;56.514;21.002;2022-08-14T16:02:24;28.60;99.90
27697;DHT22;15105;56.514;21.002;2022-08-14T16:04:54;28.60;99.90
27697;DHT22;15105;56.514;21.002;2022-08-14T16:07:22;28.60;99.90
27697;DHT22;15105;56.514;21.002;2022-08-14T16:09:53;28.50;99.90
27697;DHT22;15105;56.514;21.002;2022-08-14T16:12:40;28.50;99.90
27697;DHT22;15105;56.514;21.002;2022-08-14T16:15:13;28.50;99.90
27697;DHT22;15105;56.514;21.002;2022-08-14T16:17:43;28.50;99.90
27697;DHT22;15105;56.514;21.002;2022-08-14T16:20:12;28.40;99.90
27697;DHT22;15105;56.514;21.002;2022-08-14T16:23:01;28.40;99.90
27697;DHT22;15105;56.514;21.002;2022-08-14T16:25:50;28.40;99.90
27697;DHT22;15105;56.514;21.002;2022-08-14T16:28:18;28.40;99.90
27697;DHT22;15105;56.514;21.002;2022-08-14T16:30:54;28.30;99.90
27697;DHT22;15105;56.514;21.002;2022-08-14T16:33:21;28.30;99.90
27697;DHT22;15105;56.514;21.002;2022-08-14T16:36:10;28.30;99.90
27697;DHT22;15105;56.514;21.002;2022-08-14T16:38:57;28.20;99.90
27697;DHT22;15105;56.514;21.002;2022-08-14T16:41:26;28.20;99.90
27697;DHT22;15105;56.514;21.002;2022-08-14T16:44:04;28.20;99.90
27697;DHT22;15105;56.514;21.002;2022-08-14T16:46:47;28.10;99.90
27697;DHT22;15105;56.514;21.002;2022-08-14T16:49:32;28.10;99.90
27697;DHT22;15105;56.514;21.002;2022-08-14T16:52:28;28.10;99.90
27697;DHT22;15105;56.514;21.002;2022-08-14T16:55:20;28.00;99.90
27697;DHT22;15105;56.514;21.002;2022-08-14T16:57:56;28.00;99.90
27697;DHT22;15105;56.514;21.002;2022-08-14T17:00:37;27.90;99.90
27697;DHT22;15105;56.514;21.002;2022-08-14T17:03:11;27.90;99.90
27697;DHT22;15105;56.514;21.002;2022-08-14T17:05:41;27.80;99.90
27697;DHT22;15105;56.514;21.002;2022-08-14T17:08:14;27.80;99.90
27697;DHT22;15105;56.514;21.002;2022-08-14T17:11:12;27.70;99.90
27697;DHT22;15105;56.514;21.002;2022-08-14T17:13:41;27.60;99.90
27697;DHT22;15105;56.514;21.002;2022-08-14T17:16:34;27.60;99.90
27697;DHT22;15105;56.514;21.002;2022-08-14T17:19:04;27.60;99.90
27697;DHT22;15105;56.514;21.002;2022-08-14T17:21:40;27.60;99.90
27697;DHT22;15105;56.514;21.002;2022-08-14T17:24:12;27.60;99.90
27697;DHT22;15105;56.514;21.002;2022-08-14T17:27:00;27.60;99.90